| time (UTC) | temp F | wind direction | speed MPH | gust MPH | rain 1hr in | rain 24hr in | rain mn in | humidity % | barometer mb |
| 20260505211148 | 46 | 306 | 4.0 | 15.0 | 0.00 | 0.00 | 0.00 | 62 | 1011.1 |
| 20260505210149 | 47 | 309 | 6.0 | 15.0 | 0.00 | 0.00 | 0.00 | 59 | 1011.2 |
| 20260505205148 | 47 | 294 | 7.0 | 16.0 | 0.00 | 0.00 | 0.00 | 60 | 1011.2 |
| 20260505204148 | 46 | 342 | 4.0 | 15.0 | 0.00 | 0.00 | 0.00 | 63 | 1011.2 |
| 20260505203148 | 48 | 350 | 2.0 | 14.0 | 0.00 | 0.00 | 0.00 | 59 | 1011.1 |
| 20260505202148 | 47 | 333 | 4.0 | 15.0 | 0.00 | 0.00 | 0.00 | 62 | 1011.1 |
| 20260505201148 | 48 | 295 | 8.0 | 17.0 | 0.00 | 0.00 | 0.00 | 59 | 1011.1 |
| 20260505200149 | 46 | 325 | 8.0 | 17.0 | 0.00 | 0.00 | 0.00 | 59 | 1011.2 |
| 20260505195148 | 45 | 308 | 7.0 | 15.0 | 0.00 | 0.00 | 0.00 | 62 | 1011.2 |
| 20260505194148 | 45 | 326 | 3.0 | 15.0 | 0.00 | 0.00 | 0.00 | 62 | 1011.3 |
| 20260505193149 | 46 | 298 | 5.0 | 13.0 | 0.00 | 0.00 | 0.00 | 61 | 1011.1 |
| 20260505192148 | 45 | 279 | 1.0 | 15.0 | 0.00 | 0.00 | 0.00 | 63 | 1011.1 |
| 20260505191148 | 45 | 312 | 5.0 | 12.0 | 0.00 | 0.00 | 0.00 | 62 | 1011.2 |
| 20260505190149 | 45 | 306 | 3.0 | 11.0 | 0.00 | 0.00 | 0.00 | 62 | 1011.1 |
| 20260505185148 | 45 | 299 | 5.0 | 11.0 | 0.00 | 0.00 | 0.00 | 63 | 1011.0 |
| 20260505184227 | 45 | 303 | 6.0 | 14.0 | 0.00 | 0.00 | 0.00 | 61 | 1011.0 |
| 20260505184148 | 45 | 303 | 6.0 | 14.0 | 0.00 | 0.00 | 0.00 | 61 | 1011.0 |
| 20260505183148 | 48 | 316 | 5.0 | 18.0 | 0.00 | 0.00 | 0.00 | 60 | 1010.8 |
| 20260505182148 | 45 | 23 | 5.0 | 14.0 | 0.00 | 0.00 | 0.00 | 60 | 1010.8 |
| 20260505181149 | 45 | 314 | 5.0 | 13.0 | 0.00 | 0.00 | 0.00 | 59 | 1010.8 |
| 20260505180148 | 46 | 352 | 4.0 | 14.0 | 0.00 | 0.00 | 0.00 | 58 | 1010.7 |
| 20260505175235 | 46 | 345 | 6.0 | 13.0 | 0.00 | 0.00 | 0.00 | 57 | 1010.6 |
| 20260505175149 | 46 | 345 | 6.0 | 13.0 | 0.00 | 0.00 | 0.00 | 57 | 1010.6 |
| 20260505174148 | 45 | 356 | 4.0 | 10.0 | 0.00 | 0.00 | 0.00 | 57 | 1010.6 |
| 20260505173148 | 45 | 343 | 6.0 | 12.0 | 0.00 | 0.00 | 0.00 | 57 | 1010.4 |
| 20260505172148 | 46 | 359 | 4.0 | 11.0 | 0.00 | 0.00 | 0.00 | 57 | 1010.5 |
| 20260505171148 | 45 | 344 | 5.0 | 11.0 | 0.00 | 0.00 | 0.00 | 57 | 1010.3 |
| 20260505170148 | 45 | 343 | 5.0 | 10.0 | 0.00 | 0.00 | 0.00 | 55 | 1010.2 |
| 20260505165148 | 45 | 9 | 5.0 | 13.0 | 0.00 | 0.00 | 0.00 | 56 | 1010.2 |
| 20260505164253 | 45 | 341 | 6.0 | 12.0 | 0.00 | 0.00 | 0.00 | 54 | 1010.0 |
| 20260505164148 | 45 | 341 | 6.0 | 12.0 | 0.00 | 0.00 | 0.00 | 54 | 1010.0 |
| 20260505163148 | 44 | 355 | 4.0 | 11.0 | 0.00 | 0.00 | 0.00 | 57 | 1010.0 |
| 20260505162148 | 44 | 340 | 5.0 | 11.0 | 0.00 | 0.00 | 0.00 | 56 | 1009.9 |
| 20260505161148 | 44 | 16 | 7.0 | 10.0 | 0.00 | 0.00 | 0.00 | 52 | 1009.9 |
| 20260505160148 | 44 | 357 | 5.0 | 10.0 | 0.00 | 0.00 | 0.00 | 55 | 1009.8 |
| 20260505153148 | 43 | 351 | 5.0 | 12.0 | 0.00 | 0.00 | 0.00 | 55 | 1009.6 |
| 20260505152148 | 43 | 5 | 7.0 | 11.0 | 0.00 | 0.00 | 0.00 | 51 | 1009.5 |
| 20260505151148 | 44 | 5 | 6.0 | 11.0 | 0.00 | 0.00 | 0.00 | 52 | 1009.5 |
| 20260505150148 | 44 | 2 | 4.0 | 11.0 | 0.00 | 0.00 | 0.00 | 53 | 1009.2 |
| 20260505140239 | 42 | 28 | 5.0 | 12.0 | 0.00 | 0.00 | 0.00 | 57 | 1008.6 |
| 20260505140148 | 42 | 28 | 5.0 | 12.0 | 0.00 | 0.00 | 0.00 | 57 | 1008.6 |
| 20260505130231 | 40 | 12 | 8.0 | 12.0 | 0.00 | 0.00 | 0.00 | 68 | 1008.6 |
| 20260505130148 | 40 | 12 | 8.0 | 12.0 | 0.00 | 0.00 | 0.00 | 68 | 1008.6 |
| 20260505124148 | 39 | 9 | 7.0 | 11.0 | 0.00 | 0.00 | 0.00 | 76 | 1008.4 |
| 20260505123147 | 39 | 6 | 6.0 | 10.0 | 0.00 | 0.00 | 0.00 | 78 | 1008.3 |
| 20260505122148 | 39 | 357 | 5.0 | 12.0 | 0.00 | 0.00 | 0.00 | 78 | 1008.3 |
| 20260505121148 | 39 | 21 | 6.0 | 11.0 | 0.00 | 0.00 | 0.00 | 78 | 1008.3 |
| 20260505120150 | 39 | 12 | 6.0 | 11.0 | 0.00 | 0.00 | 0.00 | 79 | 1008.3 |
| 20260505115401 | 39 | 13 | 6.0 | 11.0 | 0.00 | 0.00 | 0.00 | 79 | 1008.3 |
| 20260505115147 | 39 | 13 | 6.0 | 11.0 | 0.00 | 0.00 | 0.00 | 79 | 1008.3 |
| 20260505114148 | 39 | 6 | 5.0 | 10.0 | 0.00 | 0.00 | 0.00 | 78 | 1008.3 |
| 20260505113148 | 39 | 8 | 5.0 | 9.0 | 0.00 | 0.00 | 0.00 | 78 | 1008.4 |
| 20260505112147 | 39 | 3 | 6.0 | 11.0 | 0.00 | 0.00 | 0.00 | 80 | 1008.4 |
| 20260505111147 | 38 | 350 | 5.0 | 10.0 | 0.00 | 0.00 | 0.00 | 81 | 1008.4 |
| 20260505110149 | 38 | 354 | 4.0 | 8.0 | 0.00 | 0.00 | 0.00 | 80 | 1008.3 |
| 20260505102147 | 39 | 343 | 3.0 | 9.0 | 0.00 | 0.00 | 0.00 | 78 | 1008.2 |
| 20260505101147 | 39 | 351 | 4.0 | 8.0 | 0.00 | 0.00 | 0.00 | 78 | 1008.3 |
| 20260505100147 | 39 | 351 | 4.0 | 8.0 | 0.00 | 0.00 | 0.00 | 77 | 1008.3 |
| 20260505095147 | 40 | 349 | 4.0 | 7.0 | 0.00 | 0.00 | 0.00 | 76 | 1008.3 |
| 20260505094147 | 40 | 343 | 3.0 | 8.0 | 0.00 | 0.00 | 0.00 | 1008.4 | |
| 20260505093148 | 41 | 344 | 3.0 | 7.0 | 0.00 | 0.00 | 0.00 | 76 | 1008.5 |
| 20260505092147 | 41 | 343 | 4.0 | 9.0 | 0.00 | 0.00 | 0.00 | 74 | 1008.4 |
| 20260505091147 | 41 | 3 | 5.0 | 8.0 | 0.00 | 0.00 | 0.00 | 74 | 1008.4 |
| 20260505090147 | 40 | 352 | 4.0 | 8.0 | 0.00 | 0.00 | 0.00 | 1008.5 | |
| 20260505085148 | 40 | 327 | 3.0 | 7.0 | 0.00 | 0.00 | 0.00 | 74 | 1008.5 |
| 20260505084147 | 41 | 324 | 4.0 | 9.0 | 0.00 | 0.00 | 0.00 | 73 | 1008.6 |
| 20260505083148 | 41 | 331 | 5.0 | 10.0 | 0.00 | 0.00 | 0.00 | 74 | 1008.7 |
| 20260505082147 | 40 | 330 | 4.0 | 9.0 | 0.00 | 0.00 | 0.00 | 73 | 1008.7 |
| 20260505081147 | 41 | 324 | 3.0 | 9.0 | 0.00 | 0.00 | 0.00 | 72 | 1008.8 |
| 20260505080147 | 41 | 324 | 4.0 | 8.0 | 0.00 | 0.00 | 0.00 | 72 | 1008.7 |
| 20260505075147 | 41 | 327 | 4.0 | 10.0 | 0.00 | 0.00 | 0.00 | 72 | 1008.8 |
| 20260505074148 | 41 | 337 | 6.0 | 13.0 | 0.00 | 0.00 | 0.00 | 72 | 1008.8 |
| 20260505073147 | 41 | 328 | 2.0 | 12.0 | 0.00 | 0.00 | 0.00 | 71 | 1008.8 |
| 20260505072147 | 41 | 342 | 5.0 | 12.0 | 0.00 | 0.00 | 0.00 | 71 | 1008.8 |
| 20260505071147 | 41 | 351 | 6.0 | 11.0 | 0.00 | 0.00 | 0.00 | 73 | 1008.7 |
| 20260505070148 | 41 | 335 | 4.0 | 10.0 | 0.00 | 0.00 | 0.00 | 72 | 1008.7 |
| 20260505065147 | 41 | 337 | 4.0 | 11.0 | 0.00 | 0.00 | 0.00 | 72 | 1008.6 |
| 20260505064147 | 42 | 330 | 3.0 | 13.0 | 0.00 | 0.00 | 0.00 | 72 | 1008.5 |
| 20260505063147 | 42 | 336 | 5.0 | 11.0 | 0.00 | 0.00 | 0.00 | 71 | 1008.7 |
| 20260505062147 | 42 | 353 | 4.0 | 12.0 | 0.00 | 0.00 | 0.00 | 72 | 1008.8 |
| 20260505061147 | 41 | 360 | 4.0 | 12.0 | 0.00 | 0.00 | 0.00 | 1008.8 | |
| 20260505060147 | 41 | 338 | 6.0 | 10.0 | 0.00 | 0.00 | 0.00 | 74 | 1008.8 |
| 20260505055147 | 41 | 340 | 5.0 | 11.0 | 0.00 | 0.00 | 0.00 | 73 | 1008.7 |
| 20260505054147 | 42 | 333 | 4.0 | 11.0 | 0.00 | 0.00 | 0.00 | 73 | 1008.8 |
| 20260505053148 | 42 | 341 | 5.0 | 10.0 | 0.00 | 0.00 | 0.00 | 74 | 1008.8 |
| 20260505052148 | 42 | 330 | 5.0 | 10.0 | 0.00 | 0.00 | 0.00 | 73 | 1008.9 |
| 20260505051147 | 42 | 327 | 4.0 | 13.0 | 0.00 | 0.00 | 0.00 | 73 | 1008.8 |
| 20260505050147 | 42 | 349 | 8.0 | 15.0 | 0.00 | 0.00 | 0.00 | 73 | 1009.1 |
| 20260505041147 | 42 | 1 | 6.0 | 18.0 | 0.00 | 0.00 | 0.00 | 71 | 1009.0 |
| 20260505040148 | 43 | 353 | 8.0 | 16.0 | 0.00 | 0.00 | 0.00 | 71 | 1008.8 |
| 20260505035147 | 43 | 354 | 6.0 | 14.0 | 0.00 | 0.00 | 0.00 | 71 | 1008.7 |
| 20260505034147 | 43 | 2 | 8.0 | 14.0 | 0.00 | 0.00 | 0.00 | 71 | 1008.7 |
| 20260505033148 | 43 | 4 | 9.0 | 14.0 | 0.00 | 0.00 | 0.00 | 69 | 1008.7 |
| 20260505032147 | 44 | 360 | 6.0 | 16.0 | 0.00 | 0.00 | 0.00 | 68 | 1008.5 |
| 20260505031147 | 44 | 3 | 7.0 | 13.0 | 0.00 | 0.00 | 0.00 | 68 | 1008.4 |
| 20260505030148 | 44 | 357 | 7.0 | 15.0 | 0.00 | 0.00 | 0.00 | 66 | 1008.2 |
| 20260505025147 | 44 | 2 | 6.0 | 15.0 | 0.00 | 0.00 | 0.00 | 1008.3 | |
| 20260505024147 | 45 | 356 | 8.0 | 17.0 | 0.00 | 0.00 | 0.00 | 63 | 1008.1 |
| 20260505023149 | 46 | 346 | 7.0 | 16.0 | 0.00 | 0.00 | 0.00 | 61 | 1008.2 |
| 20260505022147 | 46 | 346 | 8.0 | 15.0 | 0.00 | 0.00 | 0.00 | 63 | 1008.0 |
| 20260505021235 | 45 | 4 | 7.0 | 15.0 | 0.00 | 0.00 | 0.00 | 65 | 1007.8 |
| 20260505021147 | 45 | 4 | 7.0 | 15.0 | 0.00 | 0.00 | 0.00 | 65 | 1007.8 |
| 20260505020147 | 46 | 359 | 7.0 | 13.0 | 0.00 | 0.00 | 0.00 | 64 | 1007.9 |
| 20260505015147 | 46 | 11 | 7.0 | 15.0 | 0.00 | 0.00 | 0.00 | 64 | 1007.9 |
| 20260505014218 | 48 | 8 | 6.0 | 15.0 | 0.00 | 0.00 | 0.00 | 62 | 1008.0 |
| 20260505014147 | 48 | 8 | 6.0 | 15.0 | 0.00 | 0.00 | 0.00 | 62 | 1008.0 |
| 20260505013147 | 48 | 2 | 9.0 | 16.0 | 0.00 | 0.00 | 0.00 | 61 | 1008.0 |
| 20260505012147 | 48 | 360 | 7.0 | 16.0 | 0.00 | 0.00 | 0.00 | 59 | 1008.0 |
| 20260505011147 | 49 | 360 | 7.0 | 13.0 | 0.00 | 0.00 | 0.00 | 55 | 1008.2 |
| 20260505010148 | 49 | 333 | 7.0 | 14.0 | 0.00 | 0.00 | 0.00 | 53 | 1008.3 |
| 20260505005147 | 50 | 342 | 6.0 | 13.0 | 0.00 | 0.00 | 0.00 | 51 | 1008.3 |
| 20260505004149 | 49 | 2 | 6.0 | 15.0 | 0.00 | 0.00 | 0.00 | 54 | 1008.2 |
| 20260505003147 | 49 | 354 | 8.0 | 17.0 | 0.00 | 0.00 | 0.00 | 55 | 1008.3 |
| 20260505002147 | 50 | 7 | 6.0 | 16.0 | 0.00 | 0.00 | 0.00 | 55 | 1008.3 |
| 20260505001147 | 49 | 342 | 7.0 | 17.0 | 0.00 | 0.00 | 0.00 | 57 | 1008.4 |
| 20260505000148 | 51 | 344 | 8.0 | 16.0 | 0.00 | 0.00 | 0.00 | 54 | 1008.2 |
| 20260504235147 | 52 | 312 | 9.0 | 19.0 | 0.00 | 0.00 | 0.00 | 45 | 1008.3 |
| 20260504234147 | 52 | 307 | 7.0 | 15.0 | 0.00 | 0.00 | 0.00 | 46 | 1008.2 |
| 20260504233148 | 52 | 356 | 6.0 | 18.0 | 0.00 | 0.00 | 0.00 | 48 | 1008.1 |
| 20260504232147 | 52 | 305 | 7.0 | 16.0 | 0.00 | 0.00 | 0.00 | 47 | 1008.1 |
| 20260504231147 | 52 | 289 | 10.0 | 19.0 | 0.00 | 0.00 | 0.00 | 49 | 1008.1 |
| 20260504230149 | 52 | 314 | 8.0 | 16.0 | 0.00 | 0.00 | 0.00 | 49 | 1008.3 |
| 20260504225147 | 52 | 302 | 9.0 | 16.0 | 0.00 | 0.00 | 0.00 | 49 | 1008.4 |
| 20260504224233 | 52 | 299 | 10.0 | 16.0 | 0.00 | 0.00 | 0.00 | 49 | 1008.4 |
| 20260504224147 | 52 | 299 | 10.0 | 16.0 | 0.00 | 0.00 | 0.00 | 49 | 1008.4 |
| 20260504223147 | 52 | 296 | 10.0 | 18.0 | 0.00 | 0.00 | 0.00 | 49 | 1008.6 |
| 20260504222147 | 52 | 301 | 9.0 | 17.0 | 0.00 | 0.00 | 0.00 | 48 | 1008.8 |
| 20260504221147 | 52 | 314 | 6.0 | 14.0 | 0.00 | 0.00 | 0.00 | 48 | 1008.8 |
| 20260504220147 | 52 | 310 | 9.0 | 17.0 | 0.00 | 0.00 | 0.00 | 49 | 1008.9 |
| 20260504215147 | 52 | 319 | 7.0 | 16.0 | 0.00 | 0.00 | 0.00 | 47 | 1009.0 |
| 20260504214147 | 52 | 318 | 7.0 | 13.0 | 0.00 | 0.00 | 0.00 | 45 | 1009.2 |
| 20260504213147 | 51 | 300 | 10.0 | 17.0 | 0.00 | 0.00 | 0.00 | 46 | 1009.3 |
| 20260504212147 | 52 | 300 | 5.0 | 14.0 | 0.00 | 0.00 | 0.00 | 46 | 1009.3 |